Terminal Aerodrome Forecast
Issued by NWS

Home | Current Version | Previous Version | Text Only | Print | Product List | Glossary On
Versions: 1 2 3 4 5 6 7 8 9 10 11 12 13 14 15 16 17 18
000
FTUS45 KBOI 212047 AAB
TAFMYL
TAF AMD
KMYL 212047Z 2121/2218 16010KT 3SM -SN BR OVC015
     FM220400 16010KT 6SM -RASN BR OVC015=

USA.gov is the U.S. government's official web portal to all federal, state and local government web resources and services.